Time;durP1;ratioP1;P1;durP2;ratioP2;P2;SDS_P1;SDS_P2;PMS_P1;PMS_P2;Temp;Humidity;BMP_temperature;BMP_pressure;BME280_temperature;BME280_humidity;BME280_pressure;Samples;Min_cycle;Max_cycle;Signal;HPM_P1;HPM_P2
2021/12/01 10:19:14;;;;;;;20.13;13.20;;;205.40;2252.80;;;;;;4919230;29;20039;-89
2021/12/01 10:21:51;;;;;;;37.63;25.55;;;205.40;2252.80;;;;;;4922772;29;20035;-90
2021/12/01 10:24:35;;;;;;;37.53;26.80;;;205.40;2252.80;;;;;;4905744;29;20102;-91
2021/12/01 10:27:04;;;;;;;24.80;16.85;;;205.70;2252.80;;;;;;4905803;29;20020;-90
2021/12/01 10:29:34;;;;;;;23.95;16.45;;;230.50;2252.80;;;;;;4906448;29;20024;-92
2021/12/01 10:32:13;;;;;;;24.65;18.05;;;230.60;2252.80;;;;;;4908050;29;20031;-91
2021/12/01 10:34:41;;;;;;;24.13;14.32;;;230.60;2252.80;;;;;;4908304;29;20040;-92
2021/12/01 10:37:22;;;;;;;17.88;11.13;;;230.90;2252.80;;;;;;4909447;29;20024;-84
2021/12/01 10:40:10;;;;;;;25.73;16.85;;;231.10;2252.80;;;;;;4905289;29;20024;-83
2021/12/01 10:43:07;;;;;;;48.72;37.00;;;231.30;2252.80;;;;;;4893596;29;20036;-85
2021/12/01 10:45:47;;;;;;;20.80;13.48;;;231.30;2252.80;;;;;;4904170;29;20072;-78
2021/12/01 10:48:24;;;;;;;21.63;15.65;;;256.20;2252.80;;;;;;4903626;29;20350;-85
2021/12/01 10:50:51;;;;;;;14.80;10.00;;;256.20;2252.80;;;;;;4903700;29;20131;-83
2021/12/01 10:53:19;;;;;;;14.10;9.57;;;256.50;2252.80;;;;;;4903461;29;20072;-79
2021/12/01 10:55:54;;;;;;;11.25;8.13;;;256.60;2252.80;;;;;;4903052;29;20405;-82
2021/12/01 10:58:20;;;;;;;25.17;19.00;;;256.60;2252.80;;;;;;4903284;29;20058;-81
2021/12/01 11:00:47;;;;;;;27.88;21.00;;;256.40;2252.80;;;;;;4903107;29;20059;-79
2021/12/01 11:03:15;;;;;;;32.90;21.52;;;256.50;2252.80;;;;;;4918543;29;20030;-81
2021/12/01 11:05:48;;;;;;;24.65;17.42;;;256.50;2252.80;;;;;;4902974;29;20083;-80
2021/12/01 11:08:25;;;;;;;14.70;10.05;;;256.70;2252.80;;;;;;4903055;29;20479;-79
2021/12/01 11:11:05;;;;;;;6.40;4.20;;;281.60;2278.40;;;;;;4902894;29;20495;-83
2021/12/01 11:13:31;;;;;;;10.10;6.72;;;282.00;2278.40;;;;;;4918483;29;20020;-79
2021/12/01 11:15:59;;;;;;;16.10;11.20;;;282.20;2278.40;;;;;;4902679;29;20472;-84
2021/12/01 11:18:30;;;;;;;20.65;11.73;;;282.40;2278.40;;;;;;4902898;29;20028;-78
2021/12/01 11:21:02;;;;;;;13.57;9.23;;;282.50;2278.40;;;;;;4902909;29;20028;-81
2021/12/01 11:23:33;;;;;;;14.98;8.10;;;307.50;2227.20;;;;;;4919910;29;20032;-80
2021/12/01 11:26:10;;;;;;;21.75;10.15;;;307.70;2176.00;;;;;;4902791;29;20384;-78
2021/12/01 11:28:45;;;;;;;13.88;9.23;;;307.70;2304.00;;;;;;4902949;29;20027;-85
2021/12/01 11:31:43;;;;;;;19.17;12.73;;;308.00;2201.60;;;;;;4902622;29;20067;-86
2021/12/01 11:34:15;;;;;;;21.73;13.38;;;332.80;2329.60;;;;;;4902927;29;20461;-86
2021/12/01 11:36:52;;;;;;;20.63;13.40;;;332.90;2329.60;;;;;;4902524;29;20035;-86
2021/12/01 11:39:23;;;;;;;29.52;17.55;;;332.90;2329.60;;;;;;4902743;29;20465;-83
2021/12/01 11:41:52;;;;;;;26.58;19.58;;;332.90;2329.60;;;;;;4919865;29;20032;-83
2021/12/01 11:44:19;;;;;;;38.58;24.33;;;332.90;2329.60;;;;;;4902420;29;20499;-84
2021/12/01 11:46:47;;;;;;;26.58;17.50;;;333.20;2304.00;;;;;;4902265;29;20034;-85
2021/12/01 11:49:16;;;;;;;33.15;20.83;;;333.30;2329.60;;;;;;4902641;29;20089;-82
2021/12/01 11:52:10;;;;;;;20.08;14.88;;;333.60;2278.40;;;;;;4919215;29;20087;-81
2021/12/01 11:54:45;;;;;;;29.08;17.33;;;333.70;2099.20;;;;;;4899233;29;20118;-84
2021/12/01 11:57:11;;;;;;;19.20;10.60;;;358.40;2124.80;;;;;;4919196;29;20031;-79
2021/12/01 11:59:49;;;;;;;14.35;10.10;;;358.60;2048.00;;;;;;4901891;29;20024;-83
2021/12/01 12:02:18;;;;;;;13.68;8.40;;;358.60;2022.40;;;;;;4902058;29;20034;-82
2021/12/01 12:04:49;;;;;;;14.57;7.93;;;358.60;2022.40;;;;;;4918524;29;20465;-82
2021/12/01 12:07:44;;;;;;;11.20;8.18;;;358.70;1971.20;;;;;;4901960;29;20020;-81
2021/12/01 12:10:10;;;;;;;12.68;7.50;;;358.90;1945.60;;;;;;4900348;29;20028;-79
2021/12/01 12:12:56;;;;;;;17.10;12.52;;;359.00;1945.60;;;;;;4918560;29;20020;-77
2021/12/01 12:15:41;;;;;;;16.98;10.90;;;359.20;1945.60;;;;;;4915980;29;20096;-82
2021/12/01 12:18:09;;;;;;;17.92;11.88;;;359.20;1945.60;;;;;;4916709;29;20083;-82
2021/12/01 12:20:46;;;;;;;17.38;10.77;;;359.20;1945.60;;;;;;4900675;29;20127;-83
2021/12/01 12:23:14;;;;;;;18.52;11.60;;;359.30;1920.00;;;;;;4901211;29;20036;-82
2021/12/01 12:25:54;;;;;;;19.20;12.73;;;384.00;1945.60;;;;;;4917666;29;20054;-85
2021/12/01 12:28:25;;;;;;;21.88;14.88;;;384.10;1945.60;;;;;;4900584;29;20039;-78
2021/12/01 12:30:53;;;;;;;16.63;10.82;;;384.20;1945.60;;;;;;4900887;29;20087;-82
2021/12/01 12:33:33;;;;;;;34.30;22.27;;;384.00;1894.40;;;;;;4914265;29;20023;-82
2021/12/01 12:36:06;;;;;;;22.80;15.77;;;384.00;1920.00;;;;;;4916149;29;20025;-82
2021/12/01 12:38:31;;;;;;;;;;;359.20;1920.00;;;;;;4912689;29;20026;-83
2021/12/01 12:41:02;;;;;;;16.25;10.07;;;359.20;1920.00;;;;;;4900039;29;19910;-81
2021/12/01 12:43:31;;;;;;;20.55;14.50;;;359.00;1945.60;;;;;;4915232;29;20032;-83
2021/12/01 12:46:12;;;;;;;22.33;16.58;;;359.00;1945.60;;;;;;4894242;29;20027;-81
2021/12/01 12:48:42;;;;;;;23.85;15.15;;;359.10;1971.20;;;;;;4892984;29;20453;-84
2021/12/01 12:51:18;;;;;;;38.00;25.73;;;359.10;1945.60;;;;;;4899404;29;20475;-83
2021/12/01 12:54:00;;;;;;;49.70;36.03;;;359.20;1971.20;;;;;;4925369;29;20051;-79
2021/12/01 12:56:33;;;;;;;52.72;38.08;;;359.20;1945.60;;;;;;4942356;29;20630;-82
2021/12/01 12:59:18;;;;;;;;;;;359.30;1971.20;;;;;;4957943;29;20038;-79
2021/12/01 13:01:44;;;;;;;30.45;19.65;;;384.00;1920.00;;;;;;4919503;29;19906;-81
2021/12/01 13:04:54;;;;;;;28.80;18.40;;;384.00;1920.00;;;;;;4919058;29;20039;-83
2021/12/01 13:07:40;;;;;;;26.77;17.73;;;384.20;1945.60;;;;;;4901198;29;20032;-79
2021/12/01 13:10:11;;;;;;;27.92;17.55;;;384.00;1920.00;;;;;;4917045;29;20031;-79
2021/12/01 13:12:57;;;;;;;22.38;13.85;;;359.30;1945.60;;;;;;4916690;29;20078;-82
2021/12/01 13:15:33;;;;;;;36.15;21.25;;;359.10;1971.20;;;;;;4897810;29;20048;-83
2021/12/01 13:18:07;;;;;;;32.53;18.60;;;359.10;1996.80;;;;;;4896726;29;20111;-80
2021/12/01 13:20:36;;;;;;;29.63;17.92;;;358.80;1996.80;;;;;;4907016;29;20031;-83
2021/12/01 13:23:04;;;;;;;16.40;11.10;;;358.70;2022.40;;;;;;4935287;29;20142;-82
2021/12/01 13:25:30;;;;;;;33.67;20.92;;;358.50;2073.60;;;;;;4935994;29;20062;-85
2021/12/01 13:27:56;;;;;;;43.85;23.55;;;333.70;2073.60;;;;;;4935758;29;20028;-84
2021/12/01 13:30:22;;;;;;;50.67;25.88;;;333.60;2073.60;;;;;;4918437;29;20032;-82
2021/12/01 13:33:13;;;;;;;40.05;21.25;;;333.50;2099.20;;;;;;4918361;29;20028;-82
2021/12/01 13:35:40;;;;;;;33.42;18.33;;;333.40;2099.20;;;;;;4935200;29;20031;-84
2021/12/01 13:38:07;;;;;;;29.40;17.13;;;333.30;2124.80;;;;;;4918243;29;20078;-81
2021/12/01 13:40:37;;;;;;;28.55;18.08;;;333.30;2150.40;;;;;;4935666;29;20032;-84
2021/12/01 13:43:04;;;;;;;19.65;13.35;;;333.40;2150.40;;;;;;4908373;29;20050;-80
2021/12/01 13:45:30;;;;;;;28.02;15.75;;;333.70;2150.40;;;;;;4915393;29;20413;-82
2021/12/01 13:47:56;;;;;;;13.32;8.90;;;333.70;2124.80;;;;;;4916204;29;20028;-81
2021/12/01 13:50:22;;;;;;;22.13;14.40;;;358.40;2124.80;;;;;;4915207;29;20372;-84
2021/12/01 13:52:51;;;;;;;15.07;11.18;;;358.50;2124.80;;;;;;4915267;29;20024;-81
2021/12/01 13:55:25;;;;;;;15.30;11.13;;;358.50;2099.20;;;;;;4920273;29;20083;-84
2021/12/01 13:58:05;;;;;;;21.88;16.05;;;358.40;2099.20;;;;;;4900164;29;20025;-83
2021/12/01 14:00:37;;;;;;;28.75;17.92;;;333.70;2099.20;;;;;;4907889;29;20039;-83
2021/12/01 14:03:04;;;;;;;21.20;13.23;;;333.40;2150.40;;;;;;4920557;29;20034;-83
2021/12/01 14:05:30;;;;;;;17.23;11.63;;;333.20;2150.40;;;;;;4920338;29;20032;-84
2021/12/01 14:08:06;;;;;;;24.55;14.30;;;333.10;2176.00;;;;;;4902747;29;20139;-83
2021/12/01 14:10:52;;;;;;;22.70;15.63;;;332.90;2201.60;;;;;;4899902;29;20037;-81
2021/12/01 14:13:19;;;;;;;14.57;9.85;;;308.00;2227.20;;;;;;4898875;29;20031;-88
2021/12/01 14:15:46;;;;;;;9.68;6.43;;;307.80;2252.80;;;;;;4899561;29;20380;-87
2021/12/01 14:18:16;;;;;;;17.00;11.32;;;307.60;2278.40;;;;;;4905649;29;20035;-85
2021/12/01 14:20:42;;;;;;;23.92;15.60;;;307.50;2304.00;;;;;;4900327;29;20115;-89
2021/12/01 14:23:08;;;;;;;25.42;15.52;;;307.30;2304.00;;;;;;4904974;29;20175;-87
2021/12/01 14:25:34;;;;;;;27.25;17.90;;;307.30;2304.00;;;;;;4900095;29;20021;-88
2021/12/01 14:28:13;;;;;;;18.95;13.32;;;307.20;2304.00;;;;;;4904097;29;20176;-89
2021/12/01 14:30:43;;;;;;;34.33;20.70;;;282.50;2278.40;;;;;;4900226;29;20029;-87
2021/12/01 14:33:14;;;;;;;43.55;31.65;;;282.50;2278.40;;;;;;4905144;29;20480;-88
2021/12/01 14:35:40;;;;;;;38.45;26.25;;;282.40;2278.40;;;;;;4900292;29;20064;-89
2021/12/01 14:38:07;;;;;;;22.42;15.82;;;282.30;2278.40;;;;;;4903920;29;20465;-85
2021/12/01 14:40:54;;;;;;;17.92;13.63;;;282.30;2278.40;;;;;;4899582;29;20071;-84
2021/12/01 14:43:31;;;;;;;13.88;11.10;;;282.30;2278.40;;;;;;4906169;29;20062;-83
2021/12/01 14:46:13;;;;;;;20.20;14.55;;;282.20;2278.40;;;;;;4898851;29;20063;-84
2021/12/01 14:48:39;;;;;;;40.30;22.52;;;282.10;2278.40;;;;;;4908529;29;20020;-84
2021/12/01 14:51:05;;;;;;;28.83;19.58;;;282.10;2278.40;;;;;;4899663;29;20051;-86
2021/12/01 14:53:37;;;;;;;24.60;18.35;;;282.00;2278.40;;;;;;4898941;29;20029;-85
2021/12/01 14:56:04;;;;;;;53.05;10.60;;;282.00;2278.40;;;;;;4899446;29;20115;-79
2021/12/01 14:58:30;;;;;;;24.98;13.48;;;282.00;2278.40;;;;;;4899651;29;20035;-85
2021/12/01 15:01:02;;;;;;;15.00;10.40;;;281.90;2278.40;;;;;;4918691;29;20032;-82
2021/12/01 15:03:39;;;;;;;22.42;14.57;;;281.90;2278.40;;;;;;4899120;29;20064;-82
2021/12/01 15:06:06;;;;;;;15.35;9.45;;;281.80;2278.40;;;;;;4902770;29;20032;-79
2021/12/01 15:08:40;;;;;;;15.40;9.05;;;281.70;2278.40;;;;;;4917213;29;20028;-78
2021/12/01 15:11:23;;;;;;;16.90;10.00;;;281.70;2278.40;;;;;;4898967;29;20378;-82
2021/12/01 15:13:52;;;;;;;25.98;17.27;;;281.60;2278.40;;;;;;4899642;29;20020;-80
2021/12/01 15:16:21;;;;;;;11.80;7.28;;;256.90;2252.80;;;;;;4911994;29;20131;-79
2021/12/01 15:18:59;;;;;;;19.27;12.18;;;256.90;2252.80;;;;;;4898777;29;20524;-80
2021/12/01 15:21:25;;;;;;;18.23;12.65;;;256.80;2252.80;;;;;;4897794;29;20084;-81
2021/12/01 15:23:55;;;;;;;21.85;16.30;;;256.80;2252.80;;;;;;4918002;29;20028;-82
2021/12/01 15:26:33;;;;;;;19.90;12.80;;;256.80;2252.80;;;;;;4902844;29;20024;-85
2021/12/01 15:29:03;;;;;;;21.20;15.63;;;256.80;2252.80;;;;;;4902169;29;20123;-87
2021/12/01 15:31:32;;;;;;;16.65;9.82;;;256.80;2252.80;;;;;;4902548;29;20024;-85
2021/12/01 15:34:01;;;;;;;28.48;19.92;;;256.80;2252.80;;;;;;4902850;29;20084;-89
2021/12/01 15:36:28;;;;;;;21.77;14.50;;;256.80;2252.80;;;;;;4902545;29;20361;-92
2021/12/01 15:38:54;;;;;;;44.63;26.58;;;256.70;2252.80;;;;;;4902494;29;20489;-90
2021/12/01 15:41:20;;;;;;;68.20;45.10;;;256.50;2252.80;;;;;;4902694;29;20032;-93
2021/12/01 15:43:49;;;;;;;55.30;34.28;;;256.50;2252.80;;;;;;4917756;29;20045;-91
2021/12/01 15:46:16;;;;;;;71.00;44.95;;;256.40;2252.80;;;;;;4921301;29;20016;-91
2021/12/01 15:48:42;;;;;;;64.82;42.20;;;256.40;2252.80;;;;;;4921108;29;20488;-90
2021/12/01 15:51:08;;;;;;;55.35;36.28;;;256.30;2252.80;;;;;;4920919;29;20088;-91
2021/12/01 15:53:34;;;;;;;139.05;84.47;;;256.30;2252.80;;;;;;4920826;29;20385;-91
2021/12/01 15:56:02;;;;;;;537.25;344.27;;;256.20;2252.80;;;;;;4921450;29;20031;-91
2021/12/01 15:58:29;;;;;;;334.02;210.15;;;256.30;2252.80;;;;;;4905976;29;20442;-89
2021/12/01 16:00:58;;;;;;;208.63;132.80;;;256.30;2252.80;;;;;;4898347;29;20021;-92
2021/12/01 16:03:25;;;;;;;657.42;432.17;;;256.20;2252.80;;;;;;4930959;29;20022;-89
2021/12/01 16:05:52;;;;;;;273.45;166.88;;;256.10;2252.80;;;;;;4902629;29;20368;-92
2021/12/01 16:08:18;;;;;;;58.38;38.88;;;256.30;2252.80;;;;;;4901923;29;20016;-79
2021/12/01 16:10:45;;;;;;;36.40;24.08;;;256.30;2252.80;;;;;;4901500;29;20072;-81
2021/12/01 16:13:11;;;;;;;29.80;20.02;;;256.30;2252.80;;;;;;4901692;29;20028;-87
2021/12/01 16:15:39;;;;;;;32.50;19.42;;;256.20;2252.80;;;;;;4901522;29;20421;-79
2021/12/01 16:18:05;;;;;;;41.35;29.98;;;256.20;2252.80;;;;;;4901517;29;20111;-79
2021/12/01 16:20:33;;;;;;;50.83;30.88;;;256.30;2252.80;;;;;;4901816;29;20457;-89
2021/12/01 16:22:59;;;;;;;108.93;84.13;;;256.20;2252.80;;;;;;4902612;29;20123;-88
2021/12/01 16:25:25;;;;;;;73.97;53.47;;;256.20;2252.80;;;;;;4901966;29;20031;-89
2021/12/01 16:27:52;;;;;;;151.65;93.43;;;256.10;2252.80;;;;;;4902268;29;20472;-88
2021/12/01 16:30:21;;;;;;;121.13;78.13;;;256.20;2252.80;;;;;;4902330;29;20035;-86
2021/12/01 16:32:50;;;;;;;93.60;56.75;;;256.20;2252.80;;;;;;4902452;29;20016;-91
2021/12/01 16:35:28;;;;;;;86.35;54.40;;;256.00;2252.80;;;;;;4902213;29;20536;-90
2021/12/01 16:37:56;;;;;;;162.50;105.72;;;231.20;2252.80;;;;;;4902155;29;20115;-91
2021/12/01 16:40:24;;;;;;;118.95;78.47;;;231.00;2252.80;;;;;;4902049;29;20030;-89
2021/12/01 16:42:57;;;;;;;101.50;70.55;;;230.90;2252.80;;;;;;4902859;29;20492;-92
2021/12/01 16:45:23;;;;;;;91.20;60.85;;;230.90;2252.80;;;;;;4903251;29;20028;-87
2021/12/01 16:47:55;;;;;;;67.22;46.22;;;230.90;2252.80;;;;;;4886550;29;20035;-94
2021/12/01 16:50:25;;;;;;;64.07;44.40;;;230.90;2252.80;;;;;;4902559;29;20030;-91
2021/12/01 16:52:57;;;;;;;52.60;38.42;;;256.20;2252.80;;;;;;4903870;29;20039;-91
2021/12/01 16:55:29;;;;;;;94.53;60.50;;;230.80;2252.80;;;;;;4902773;29;20023;-91
2021/12/01 16:57:55;;;;;;;71.85;47.08;;;230.70;2252.80;;;;;;4902506;29;20047;-91
2021/12/01 17:00:30;;;;;;;64.65;44.78;;;230.60;2252.80;;;;;;4901968;29;20110;-91
2021/12/01 17:02:56;;;;;;;94.47;59.83;;;230.70;2252.80;;;;;;4902099;29;20028;-87
2021/12/01 17:05:49;;;;;;;91.60;64.03;;;230.60;2252.80;;;;;;4901515;29;20047;-92
2021/12/01 17:11:08;;;;;;;99.32;58.03;;;230.40;2252.80;;;;;;4919198;29;20042;-92
2021/12/01 17:13:34;;;;;;;98.70;62.58;;;205.70;2252.80;;;;;;4902014;29;20052;-92
2021/12/01 17:16:04;;;;;;;68.30;46.70;;;205.40;2252.80;;;;;;4901566;29;20072;-92
2021/12/01 17:18:32;;;;;;;52.42;38.90;;;230.60;2252.80;;;;;;4902066;29;20110;-92
2021/12/01 17:21:02;;;;;;;65.93;45.60;;;205.70;2252.80;;;;;;4886862;29;20532;-92
2021/12/01 17:26:44;;;;;;;;;;;;;;;;;;;;;
2021/12/01 17:29:37;;;;;;;127.00;77.30;;;205.60;2252.80;;;;;;4918146;29;20020;-91
2021/12/01 17:32:07;;;;;;;148.25;97.32;;;205.50;2252.80;;;;;;4901817;29;20372;-93
2021/12/01 17:34:35;;;;;;;135.05;93.18;;;205.40;2252.80;;;;;;4887202;29;20099;-91
2021/12/01 17:37:03;;;;;;;208.48;127.38;;;205.40;2252.80;;;;;;4887127;29;20032;-92
2021/12/01 17:39:34;;;;;;;205.73;127.70;;;205.40;2252.80;;;;;;4902023;29;20025;-91
2021/12/01 17:43:10;;;;;;;152.38;97.47;;;205.30;2252.80;;;;;;4904853;29;20031;-92
2021/12/01 17:46:16;;;;;;;144.48;84.10;;;205.30;2252.80;;;;;;4917601;29;20028;-91
2021/12/01 17:49:00;;;;;;;175.18;96.88;;;205.30;2252.80;;;;;;4902538;29;20035;-91
2021/12/01 17:51:46;;;;;;;144.00;86.13;;;205.30;2252.80;;;;;;4885674;29;20123;-91
2021/12/01 18:04:41;;;;;;;38.37;25.17;;;205.10;2252.80;;;;;;4901613;29;19957;-91
2021/12/01 19:16:29;;;;;;;179.38;97.15;;;179.70;2252.80;;;;;;1757771;23;20402;-87
2021/12/01 19:19:37;;;;;;;140.40;74.97;;;179.80;2252.80;;;;;;4960167;28;20023;-89
2021/12/01 19:23:04;;;;;;;117.28;59.58;;;179.90;2252.80;;;;;;4970559;28;20042;-90
2021/12/01 19:33:13;;;;;;;120.05;75.03;;;179.70;2252.80;;;;;;4980696;28;20042;-88
2021/12/01 19:46:30;;;;;;;220.93;127.00;;;179.50;2252.80;;;;;;4956753;29;20030;-87
2021/12/01 20:00:06;;;;;;;221.07;120.47;;;179.30;2252.80;;;;;;4957118;29;20486;-85
2021/12/01 20:06:20;;;;;;;155.05;88.00;;;179.30;2252.80;;;;;;4919983;29;20039;-88
2021/12/01 20:09:30;;;;;;;160.45;101.88;;;179.30;2252.80;;;;;;4905880;29;20044;-85
2021/12/01 22:45:23;;;;;;;135.60;87.15;;;153.80;2252.80;;;;;;5003088;23;20050;-83
2021/12/01 22:48:13;;;;;;;133.20;81.25;;;153.70;2252.80;;;;;;4989100;28;20022;-83
